Terminal Aerodrome Forecast
Issued by NWS

Home | Current Version | Previous Version | Text Only | Print | Product List | Glossary On
Versions: 1 2 3 4 5 6 7 8 9 10 11 12 13 14 15 16 17 18 19 20 21 22 23 24 25 26 27 28 29 30 31
000
FTUS45 KREV 020000 AAA
TAFCXP
TAF AMD
KCXP 020038Z 0201/0224 25010G17KT P6SM SCT120 BKN200
     FM020600 34010G16KT P6SM VCSH SCT030 BKN050
     FM021000 33010KT P6SM FEW030 SCT050
     FM021700 06007KT P6SM FEW050 SCT120=

USA.gov is the U.S. government's official web portal to all federal, state and local government web resources and services.